Accueil
METAR-TAF:

METAR-TAF

Aéroports :

Aérodrome de La Roche-sur-Yon - Les Ajoncs

La Roche-sur-Yon, France

latitude: 46-42N, longitude: 001-23W, altitude: 90 m

Observation

Le bulletin a été fait il y a 24 minutes, à 19:00 UTC
Vent 8 kt de nord/nord-est
Température 14°C
Humidité 88%
Pression 1023 hPa
Visibilité: 7000 m

METAR: LFRI 191900Z AUTO 03008KT 7000 NSC 14/12 Q1023 NOSIG

Heure: 21:24 (19:24 UTC)

Prévision

Le bulletin a été fait il y a 2 heures et 24 minutes, à 17:00 UTC
Prévision valable du 19 à 18 UTC au 20 à 18 UTC
Vent 8 kt de nord/nord-est
Visibilité 10 km ou plus
pas de nuages en-dessous de 1500 mètres et pas de cumulonimbus.

TAF: LFRI 191700Z 1918/2018 03008KT CAVOK

Observations et prévisions météorologiques de plus de 4000 aéroports (messages METAR et TAF).

Les stations disponibles sont représentées par des disques jaunes et rouges sur la carte.

Passer la souris dessus pour voir le nom de la station.

Cliquer dessus pour voir les observations et prévisions météorologiques.

Pour changer de carte: cliquez sur les boutons verts avec une croix noire pour zoomer, sur le bouton vert avec un tiret pour effectuer un zoom arrière, ou sur les flèches vertes pour les cartes adjacentes.


METAR-TAF: